Time;durP1;ratioP1;P1;durP2;ratioP2;P2;SDS_P1;SDS_P2;PMS_P1;PMS_P2;Temp;Humidity;BMP_temperature;BMP_pressure;BME280_temperature;BME280_humidity;BME280_pressure;Samples;Min_cycle;Max_cycle;Signal;HPM_P1;HPM_P2
2022/06/11 00:01:06;;;;;;;8.38;6.90;;;;;;;;;;5079471;28;20029;-86
2022/06/11 00:03:32;;;;;;;7.00;6.30;;;;;;;;;;5085312;28;20029;-83
2022/06/11 00:05:58;;;;;;;8.68;6.93;;;;;;;;;;5077694;28;20027;-84
2022/06/11 00:08:25;;;;;;;7.72;6.90;;;;;;;;;;5070670;28;20033;-84
2022/06/11 00:10:51;;;;;;;7.53;6.60;;;;;;;;;;5092142;28;20028;-84
2022/06/11 00:13:22;;;;;;;9.75;7.05;;;;;;;;;;5085153;28;20032;-84
2022/06/11 00:15:48;;;;;;;9.02;7.05;;;;;;;;;;5085683;28;20040;-84
2022/06/11 00:18:14;;;;;;;9.95;7.70;;;;;;;;;;5087872;28;20024;-84
2022/06/11 00:20:40;;;;;;;8.63;7.10;;;;;;;;;;5083976;28;20025;-84
2022/06/11 00:23:06;;;;;;;10.13;7.65;;;;;;;;;;5100360;28;20107;-85
2022/06/11 00:25:34;;;;;;;8.60;7.28;;;;;;;;;;5093620;28;20039;-84
2022/06/11 00:28:00;;;;;;;8.40;7.30;;;;;;;;;;5076459;28;20029;-85
2022/06/11 00:30:27;;;;;;;9.13;7.82;;;;;;;;;;5069494;28;20060;-84
2022/06/11 00:32:55;;;;;;;8.02;7.22;;;;;;;;;;5093963;28;20029;-84
2022/06/11 00:35:21;;;;;;;7.60;6.68;;;;;;;;;;5087851;28;20028;-86
2022/06/11 00:37:47;;;;;;;9.10;7.88;;;;;;;;;;5083805;28;20052;-84
2022/06/11 00:40:15;;;;;;;9.18;7.13;;;;;;;;;;5070869;28;20017;-85
2022/06/11 00:42:41;;;;;;;9.15;7.43;;;;;;;;;;5062161;28;20029;-84
2022/06/11 00:45:28;;;;;;;8.05;6.90;;;;;;;;;;5062922;28;20064;-85
2022/06/11 00:47:59;;;;;;;9.85;7.80;;;;;;;;;;5058501;28;20025;-85
2022/06/11 00:50:28;;;;;;;7.95;7.13;;;;;;;;;;5078187;28;20093;-85
2022/06/11 00:52:56;;;;;;;8.88;7.78;;;;;;;;;;5069555;28;20017;-85
2022/06/11 00:55:25;;;;;;;8.15;7.15;;;;;;;;;;5075271;28;20070;-85
2022/06/11 00:57:51;;;;;;;8.93;7.35;;;;;;;;;;5081498;28;20017;-85
2022/06/11 01:00:21;;;;;;;10.15;7.82;;;;;;;;;;5059656;28;20100;-85
2022/06/11 01:02:47;;;;;;;10.88;8.02;;;;;;;;;;5063217;28;20049;-85
2022/06/11 01:05:15;;;;;;;9.45;8.00;;;;;;;;;;5064014;28;20025;-85
2022/06/11 01:07:44;;;;;;;9.77;8.02;;;;;;;;;;5068756;28;20032;-85
2022/06/11 01:10:24;;;;;;;8.88;7.95;;;;;;;;;;5075016;28;20032;-84
2022/06/11 01:13:08;;;;;;;8.43;6.97;;;;;;;;;;5078404;28;20033;-85
2022/06/11 01:15:46;;;;;;;9.52;7.50;;;;;;;;;;5086190;28;20054;-85
2022/06/11 01:18:23;;;;;;;8.70;7.07;;;;;;;;;;5078423;28;20020;-85
2022/06/11 01:21:15;;;;;;;7.45;6.65;;;;;;;;;;5063422;28;20029;-84
2022/06/11 01:23:52;;;;;;;8.75;6.93;;;;;;;;;;5062621;28;20035;-83
2022/06/11 01:26:37;;;;;;;8.02;7.10;;;;;;;;;;5080420;28;20040;-85
2022/06/11 01:29:19;;;;;;;9.75;6.80;;;;;;;;;;5059401;28;20033;-86
2022/06/11 01:31:48;;;;;;;9.88;7.18;;;;;;;;;;5056527;28;20037;-85
2022/06/11 01:34:17;;;;;;;8.27;7.40;;;;;;;;;;5058158;28;20029;-84
2022/06/11 01:36:45;;;;;;;10.15;7.28;;;;;;;;;;5067673;28;20017;-83
2022/06/11 01:39:17;;;;;;;9.75;7.60;;;;;;;;;;5063095;28;20017;-85
2022/06/11 01:42:15;;;;;;;8.18;7.20;;;;;;;;;;5053004;28;20487;-84
2022/06/11 01:44:44;;;;;;;10.63;8.23;;;;;;;;;;5019320;28;20021;-84
2022/06/11 01:47:12;;;;;;;9.23;7.68;;;;;;;;;;5044457;28;20041;-84
2022/06/11 01:49:38;;;;;;;8.65;7.43;;;;;;;;;;5038522;28;20135;-84
2022/06/11 01:52:22;;;;;;;8.90;7.43;;;;;;;;;;5030143;28;20033;-86
2022/06/11 01:55:07;;;;;;;9.75;8.00;;;;;;;;;;5059818;28;20053;-83
2022/06/11 01:57:52;;;;;;;10.18;8.15;;;;;;;;;;5042557;28;20025;-84
2022/06/11 02:00:18;;;;;;;9.95;7.97;;;;;;;;;;5036787;28;20025;-84
2022/06/11 02:02:56;;;;;;;9.82;8.07;;;;;;;;;;5040547;28;20029;-86
2022/06/11 02:05:41;;;;;;;9.40;7.60;;;;;;;;;;5035414;28;20052;-84
2022/06/11 02:08:14;;;;;;;9.98;7.82;;;;;;;;;;5039035;28;20037;-85
2022/06/11 02:10:43;;;;;;;8.98;7.85;;;;;;;;;;5023725;28;20029;-84
2022/06/11 02:13:39;;;;;;;9.43;8.30;;;;;;;;;;5030156;28;20047;-84
2022/06/11 02:16:15;;;;;;;10.63;8.00;;;;;;;;;;5038030;28;20041;-85
2022/06/11 02:18:42;;;;;;;9.65;7.55;;;;;;;;;;5055954;28;20544;-83
2022/06/11 02:21:10;;;;;;;13.48;8.10;;;;;;;;;;5092993;28;20044;-84
2022/06/11 02:23:41;;;;;;;9.38;8.05;;;;;;;;;;5074144;28;20028;-84
2022/06/11 02:26:28;;;;;;;11.27;8.05;;;;;;;;;;5086726;28;20043;-86
2022/06/11 02:28:55;;;;;;;9.38;7.85;;;;;;;;;;5067771;28;20116;-85
2022/06/11 02:31:24;;;;;;;9.57;8.57;;;;;;;;;;5059821;28;20139;-85
2022/06/11 02:33:50;;;;;;;9.43;7.82;;;;;;;;;;5058785;28;20078;-84
2022/06/11 02:36:19;;;;;;;9.02;8.13;;;;;;;;;;5066073;28;20029;-85
2022/06/11 02:38:45;;;;;;;9.57;8.07;;;;;;;;;;5078581;28;20035;-84
2022/06/11 02:41:13;;;;;;;10.30;8.02;;;;;;;;;;5074171;28;20033;-84
2022/06/11 02:43:40;;;;;;;10.20;7.72;;;;;;;;;;5060239;28;20021;-84
2022/06/11 02:48:52;;;;;;;8.93;7.45;;;;;;;;;;5075909;28;20031;-84
2022/06/11 02:51:18;;;;;;;10.55;7.63;;;;;;;;;;5077853;28;20028;-84
2022/06/11 02:53:44;;;;;;;10.20;8.30;;;;;;;;;;5084493;28;20032;-85
2022/06/11 02:56:11;;;;;;;8.98;7.65;;;;;;;;;;5077173;28;20047;-85
2022/06/11 02:58:37;;;;;;;8.85;7.30;;;;;;;;;;5075325;28;20017;-85
2022/06/11 03:01:03;;;;;;;8.57;7.68;;;;;;;;;;5078076;28;20046;-83
2022/06/11 03:03:29;;;;;;;11.07;8.73;;;;;;;;;;5063044;28;20025;-84
2022/06/11 03:05:55;;;;;;;10.95;8.90;;;;;;;;;;5056208;28;20043;-84
2022/06/11 03:08:22;;;;;;;11.40;8.55;;;;;;;;;;5100527;28;20017;-84
2022/06/11 03:10:54;;;;;;;10.38;8.77;;;;;;;;;;5081139;28;20040;-84
2022/06/11 03:13:20;;;;;;;10.05;8.35;;;;;;;;;;5077904;28;20567;-84
2022/06/11 03:15:46;;;;;;;10.60;8.93;;;;;;;;;;5064962;28;20112;-85
2022/06/11 03:18:13;;;;;;;12.95;9.18;;;;;;;;;;5093660;28;20031;-84
2022/06/11 03:20:39;;;;;;;9.95;8.77;;;;;;;;;;5073959;28;20039;-85
2022/06/11 03:23:06;;;;;;;11.05;9.68;;;;;;;;;;5080770;28;20032;-82
2022/06/11 03:25:32;;;;;;;10.57;9.48;;;;;;;;;;5092653;28;20037;-85
2022/06/11 03:27:58;;;;;;;10.63;9.15;;;;;;;;;;5088393;28;20133;-83
2022/06/11 03:30:25;;;;;;;10.40;9.20;;;;;;;;;;5065534;28;20079;-85
2022/06/11 03:32:52;;;;;;;11.95;8.65;;;;;;;;;;5077952;28;20488;-84
2022/06/11 03:35:18;;;;;;;10.68;7.95;;;;;;;;;;5075804;28;20020;-84
2022/06/11 03:37:44;;;;;;;9.45;8.30;;;;;;;;;;5093437;28;20025;-84
2022/06/11 03:40:11;;;;;;;9.80;8.32;;;;;;;;;;5083315;28;20029;-82
2022/06/11 03:42:37;;;;;;;8.73;7.65;;;;;;;;;;5076418;28;20025;-84
2022/06/11 03:45:05;;;;;;;9.82;8.77;;;;;;;;;;5078289;28;20039;-84
2022/06/11 03:47:32;;;;;;;11.50;8.23;;;;;;;;;;5080540;28;20025;-84
2022/06/11 03:49:59;;;;;;;9.60;8.45;;;;;;;;;;5071271;28;20063;-85
2022/06/11 03:52:27;;;;;;;9.88;8.88;;;;;;;;;;5071970;28;20029;-85
2022/06/11 03:54:55;;;;;;;10.50;8.43;;;;;;;;;;5067603;28;20084;-84
2022/06/11 03:57:21;;;;;;;9.85;8.00;;;;;;;;;;5068595;28;20071;-84
2022/06/11 03:59:47;;;;;;;9.52;8.13;;;;;;;;;;5079325;28;20048;-85
2022/06/11 04:02:13;;;;;;;12.48;8.15;;;;;;;;;;5082544;28;20047;-84
2022/06/11 04:04:39;;;;;;;12.10;8.65;;;;;;;;;;5085278;28;20024;-84
2022/06/11 04:07:06;;;;;;;10.40;8.18;;;;;;;;;;5083290;28;20031;-85
2022/06/11 04:09:34;;;;;;;9.65;8.05;;;;;;;;;;5074864;28;20032;-84
2022/06/11 04:12:00;;;;;;;9.40;7.97;;;;;;;;;;5075871;28;20039;-85
2022/06/11 04:14:26;;;;;;;9.85;8.35;;;;;;;;;;5075772;28;20024;-85
2022/06/11 04:16:54;;;;;;;10.05;7.63;;;;;;;;;;5062713;28;20029;-85
2022/06/11 04:19:22;;;;;;;9.98;8.60;;;;;;;;;;5061921;28;20017;-84
2022/06/11 04:21:49;;;;;;;8.48;7.35;;;;;;;;;;5078246;28;20099;-84
2022/06/11 04:24:16;;;;;;;9.40;7.65;;;;;;;;;;5072703;28;20146;-85
2022/06/11 04:26:44;;;;;;;9.00;7.35;;;;;;;;;;5068569;28;20067;-84
2022/06/11 04:29:11;;;;;;;9.57;7.55;;;;;;;;;;5068296;28;20035;-84
2022/06/11 04:31:38;;;;;;;9.65;7.72;;;;;;;;;;5073061;28;20036;-85
2022/06/11 04:34:04;;;;;;;10.10;7.28;;;;;;;;;;5057162;28;20029;-84
2022/06/11 04:36:32;;;;;;;11.13;7.35;;;;;;;;;;5066794;28;20023;-84
2022/06/11 04:38:58;;;;;;;11.38;8.18;;;;;;;;;;5059594;28;20040;-85
2022/06/11 04:41:24;;;;;;;9.77;7.35;;;;;;;;;;5062512;28;20016;-85
2022/06/11 04:43:50;;;;;;;8.35;7.30;;;;;;;;;;5056707;28;20021;-83
2022/06/11 04:46:16;;;;;;;9.70;7.28;;;;;;;;;;5071336;28;20084;-83
2022/06/11 04:48:43;;;;;;;8.15;6.93;;;;;;;;;;5076035;28;20027;-85
2022/06/11 04:51:10;;;;;;;10.43;6.68;;;;;;;;;;5078892;28;20074;-84
2022/06/11 04:53:36;;;;;;;8.18;6.53;;;;;;;;;;5059183;28;20484;-83
2022/06/11 04:56:02;;;;;;;8.70;6.97;;;;;;;;;;5062749;28;20025;-84
2022/06/11 04:58:28;;;;;;;8.02;6.90;;;;;;;;;;5068963;28;20074;-84
2022/06/11 05:00:55;;;;;;;9.13;7.00;;;;;;;;;;5081035;28;20029;-85
2022/06/11 05:03:21;;;;;;;8.80;6.97;;;;;;;;;;5079205;28;20484;-83
2022/06/11 05:05:47;;;;;;;9.55;7.20;;;;;;;;;;5083146;28;20032;-83
2022/06/11 05:08:14;;;;;;;11.85;7.88;;;;;;;;;;5065251;28;20029;-83
2022/06/11 05:10:40;;;;;;;8.77;7.60;;;;;;;;;;5076595;28;20380;-85
2022/06/11 05:13:07;;;;;;;7.90;6.60;;;;;;;;;;5076472;28;20024;-85
2022/06/11 05:15:34;;;;;;;7.80;7.00;;;;;;;;;;5082359;28;20028;-85
2022/06/11 05:18:00;;;;;;;11.10;7.13;;;;;;;;;;5083994;28;20108;-84
2022/06/11 05:20:26;;;;;;;7.32;6.50;;;;;;;;;;5075466;28;20549;-85
2022/06/11 05:22:52;;;;;;;8.00;6.80;;;;;;;;;;5072260;28;20381;-85
2022/06/11 05:25:19;;;;;;;8.95;6.40;;;;;;;;;;5067224;28;20033;-83
2022/06/11 05:27:46;;;;;;;6.85;5.75;;;;;;;;;;5077146;28;20442;-85
2022/06/11 05:30:18;;;;;;;8.63;6.13;;;;;;;;;;5068467;28;20044;-86
2022/06/11 05:32:44;;;;;;;7.70;6.32;;;;;;;;;;5075598;28;20048;-85
2022/06/11 05:35:16;;;;;;;7.78;6.30;;;;;;;;;;5082924;28;20057;-84
2022/06/11 05:37:42;;;;;;;7.63;5.93;;;;;;;;;;5091232;28;20024;-86
2022/06/11 05:40:08;;;;;;;9.63;6.55;;;;;;;;;;5066110;28;20025;-84
2022/06/11 05:42:35;;;;;;;7.65;5.90;;;;;;;;;;5079666;28;20123;-85
2022/06/11 05:45:01;;;;;;;7.80;6.43;;;;;;;;;;5091998;28;20028;-85
2022/06/11 05:47:29;;;;;;;7.95;5.65;;;;;;;;;;5081417;28;20225;-85
2022/06/11 05:49:57;;;;;;;7.25;5.47;;;;;;;;;;5065247;28;20029;-85
2022/06/11 05:52:25;;;;;;;8.02;5.55;;;;;;;;;;5062196;28;20033;-85
2022/06/11 05:54:52;;;;;;;9.65;6.00;;;;;;;;;;5079127;28;20458;-85
2022/06/11 05:57:20;;;;;;;9.45;5.97;;;;;;;;;;5068420;28;20040;-84
2022/06/11 05:59:48;;;;;;;7.00;5.50;;;;;;;;;;5063847;28;20025;-85
2022/06/11 06:02:15;;;;;;;9.57;7.43;;;;;;;;;;5079250;28;20024;-85
2022/06/11 06:04:42;;;;;;;8.65;6.10;;;;;;;;;;5075036;28;20115;-86
2022/06/11 06:07:08;;;;;;;7.75;6.35;;;;;;;;;;5070611;28;20029;-85
2022/06/11 06:09:35;;;;;;;8.32;5.55;;;;;;;;;;5056280;28;20044;-86
2022/06/11 06:12:01;;;;;;;6.57;5.55;;;;;;;;;;5075359;28;20028;-86
2022/06/11 06:14:27;;;;;;;6.93;5.72;;;;;;;;;;5063386;28;20029;-86
2022/06/11 06:16:53;;;;;;;8.27;5.80;;;;;;;;;;5054817;28;20461;-85
2022/06/11 06:19:19;;;;;;;8.35;6.32;;;;;;;;;;5059014;28;20040;-85
2022/06/11 06:21:45;;;;;;;6.95;5.80;;;;;;;;;;5063889;28;20061;-85
2022/06/11 06:24:11;;;;;;;9.20;6.10;;;;;;;;;;5055300;28;20055;-84
2022/06/11 06:26:38;;;;;;;8.32;6.45;;;;;;;;;;5057850;28;20021;-84
2022/06/11 06:29:06;;;;;;;7.20;6.13;;;;;;;;;;5086717;28;20035;-85
2022/06/11 06:31:32;;;;;;;8.43;6.38;;;;;;;;;;5075188;28;20029;-84
2022/06/11 06:34:00;;;;;;;9.25;5.93;;;;;;;;;;5061617;28;20716;-85
2022/06/11 06:36:27;;;;;;;9.88;5.75;;;;;;;;;;5070288;28;20028;-85
2022/06/11 06:38:53;;;;;;;8.20;6.20;;;;;;;;;;5078930;28;20013;-85
2022/06/11 06:41:19;;;;;;;7.32;5.82;;;;;;;;;;5066449;28;20374;-85
2022/06/11 06:43:46;;;;;;;7.30;5.72;;;;;;;;;;5058116;28;20492;-85
2022/06/11 06:46:12;;;;;;;8.13;6.00;;;;;;;;;;5072756;28;20055;-85
2022/06/11 06:48:38;;;;;;;8.25;5.50;;;;;;;;;;5070325;28;20025;-84
2022/06/11 06:51:05;;;;;;;7.50;5.28;;;;;;;;;;5055325;28;20456;-84
2022/06/11 06:53:31;;;;;;;5.65;4.75;;;;;;;;;;5053814;28;20388;-85
2022/06/11 06:55:57;;;;;;;6.63;5.32;;;;;;;;;;5058275;28;20071;-85
2022/06/11 06:58:23;;;;;;;6.38;5.22;;;;;;;;;;5068891;28;20365;-86
2022/06/11 07:00:50;;;;;;;8.05;5.28;;;;;;;;;;5073376;28;20025;-86
2022/06/11 07:03:16;;;;;;;7.45;5.32;;;;;;;;;;5052755;28;20507;-86
2022/06/11 07:05:43;;;;;;;8.98;5.32;;;;;;;;;;5073079;28;20056;-88
2022/06/11 07:08:09;;;;;;;6.57;5.40;;;;;;;;;;5077623;28;20036;-87
2022/06/11 07:10:35;;;;;;;6.93;5.70;;;;;;;;;;5071300;28;20118;-86
2022/06/11 07:13:02;;;;;;;7.82;5.45;;;;;;;;;;5055512;28;20036;-85
2022/06/11 07:15:28;;;;;;;6.45;5.10;;;;;;;;;;5072188;28;20119;-86
2022/06/11 07:17:57;;;;;;;6.50;5.50;;;;;;;;;;5071667;28;20082;-85
2022/06/11 07:20:25;;;;;;;6.78;5.07;;;;;;;;;;5067465;28;20029;-86
2022/06/11 07:22:54;;;;;;;6.22;5.25;;;;;;;;;;5059023;28;20489;-86
2022/06/11 07:25:20;;;;;;;7.28;5.20;;;;;;;;;;5078760;28;20024;-87
2022/06/11 07:27:51;;;;;;;5.97;5.03;;;;;;;;;;5075179;28;20579;-86
2022/06/11 07:30:19;;;;;;;13.25;5.32;;;;;;;;;;5080134;28;20041;-85
2022/06/11 07:32:47;;;;;;;6.63;5.75;;;;;;;;;;5067350;28;20044;-88
2022/06/11 07:35:14;;;;;;;6.32;5.05;;;;;;;;;;5064713;28;20029;-87
2022/06/11 07:37:41;;;;;;;6.68;4.60;;;;;;;;;;5064362;28;20023;-84
2022/06/11 07:40:08;;;;;;;5.35;4.55;;;;;;;;;;5071395;28;20036;-85
2022/06/11 07:42:34;;;;;;;6.00;5.20;;;;;;;;;;5061565;28;20109;-87
2022/06/11 07:45:00;;;;;;;7.25;5.30;;;;;;;;;;5070542;28;20236;-86
2022/06/11 07:50:11;;;;;;;5.32;4.65;;;;;;;;;;5077904;28;20090;-85
2022/06/11 07:52:38;;;;;;;7.55;5.43;;;;;;;;;;5067625;28;20058;-86
2022/06/11 07:55:04;;;;;;;6.32;5.35;;;;;;;;;;5089703;28;20032;-85
2022/06/11 07:57:30;;;;;;;7.25;5.13;;;;;;;;;;5081334;28;20028;-85
2022/06/11 07:59:56;;;;;;;8.05;5.80;;;;;;;;;;5084240;28;20017;-84
2022/06/11 08:02:22;;;;;;;6.95;5.10;;;;;;;;;;5086315;28;20074;-84
2022/06/11 08:04:48;;;;;;;9.43;5.38;;;;;;;;;;5090011;28;20035;-84
2022/06/11 08:07:14;;;;;;;5.90;4.93;;;;;;;;;;5065475;28;20024;-83
2022/06/11 08:09:40;;;;;;;8.32;4.93;;;;;;;;;;5094320;28;20032;-82
2022/06/11 08:12:06;;;;;;;6.05;4.63;;;;;;;;;;5081573;28;20029;-84
2022/06/11 08:14:32;;;;;;;5.82;5.00;;;;;;;;;;5095739;28;20023;-85
2022/06/11 08:16:58;;;;;;;6.28;5.18;;;;;;;;;;5066171;28;20382;-85
2022/06/11 08:19:24;;;;;;;6.05;4.80;;;;;;;;;;5069696;28;20025;-84
2022/06/11 08:21:51;;;;;;;7.95;5.15;;;;;;;;;;5104268;28;20526;-84
2022/06/11 08:24:17;;;;;;;5.90;4.60;;;;;;;;;;5111385;28;20019;-84
2022/06/11 08:26:43;;;;;;;7.13;4.55;;;;;;;;;;5078848;28;20077;-84
2022/06/11 08:29:09;;;;;;;5.93;4.47;;;;;;;;;;5082636;28;20115;-84
2022/06/11 08:31:35;;;;;;;7.40;5.05;;;;;;;;;;5098445;28;20023;-84
2022/06/11 08:34:01;;;;;;;7.05;4.88;;;;;;;;;;5115633;28;20024;-84
2022/06/11 08:36:27;;;;;;;6.95;4.47;;;;;;;;;;5088518;28;20009;-83
2022/06/11 08:38:53;;;;;;;6.65;4.78;;;;;;;;;;5096056;28;20030;-84
2022/06/11 08:41:21;;;;;;;6.75;4.88;;;;;;;;;;5094895;28;20060;-82
2022/06/11 08:44:13;;;;;;;5.18;4.30;;;;;;;;;;5095756;28;20012;-84
2022/06/11 08:46:40;;;;;;;6.63;4.38;;;;;;;;;;5080695;28;20028;-85
2022/06/11 08:49:13;;;;;;;7.25;4.53;;;;;;;;;;5089496;28;20037;-83
2022/06/11 08:51:39;;;;;;;;;;;;;;;;;;5076779;28;20029;-85
2022/06/11 08:54:08;;;;;;;5.97;4.72;;;;;;;;;;5094360;28;19905;-84
2022/06/11 08:56:44;;;;;;;6.38;5.07;;;;;;;;;;5093998;28;20025;-83
2022/06/11 08:59:13;;;;;;;5.35;4.03;;;;;;;;;;5096385;28;21067;-83
2022/06/11 09:02:09;;;;;;;6.18;4.28;;;;;;;;;;5110570;28;20086;-85
2022/06/11 09:04:40;;;;;;;4.88;3.42;;;;;;;;;;5022139;28;20080;-86
2022/06/11 09:07:13;;;;;;;5.57;3.70;;;;;;;;;;5067053;28;20135;-86
2022/06/11 09:10:06;;;;;;;5.90;3.70;;;;;;;;;;5072909;28;20028;-85
2022/06/11 09:12:49;;;;;;;5.47;3.33;;;;;;;;;;5085814;28;20031;-86
2022/06/11 09:15:34;;;;;;;5.55;3.47;;;;;;;;;;5080942;28;20032;-84
2022/06/11 09:18:12;;;;;;;5.68;3.30;;;;;;;;;;5075617;28;20005;-85
2022/06/11 09:20:41;;;;;;;5.03;3.33;;;;;;;;;;5066380;28;20443;-85
2022/06/11 09:23:07;;;;;;;4.40;3.08;;;;;;;;;;5075196;28;20021;-87
2022/06/11 09:25:42;;;;;;;6.38;3.30;;;;;;;;;;5076337;28;20025;-86
2022/06/11 09:28:21;;;;;;;5.72;3.33;;;;;;;;;;5087642;28;20073;-85
2022/06/11 09:30:53;;;;;;;4.80;3.10;;;;;;;;;;5062566;28;20045;-86
2022/06/11 09:33:45;;;;;;;6.13;3.17;;;;;;;;;;5063759;28;20029;-87
2022/06/11 09:36:19;;;;;;;5.20;3.30;;;;;;;;;;5060215;28;20618;-85
2022/06/11 09:38:52;;;;;;;4.97;3.30;;;;;;;;;;5059715;28;20484;-86
2022/06/11 09:41:27;;;;;;;6.13;3.67;;;;;;;;;;5064314;28;20036;-85
2022/06/11 09:43:59;;;;;;;6.15;3.35;;;;;;;;;;5060295;28;20040;-86
2022/06/11 09:46:28;;;;;;;5.20;3.13;;;;;;;;;;5077156;28;20033;-86
2022/06/11 09:49:07;;;;;;;5.45;3.55;;;;;;;;;;5074772;28;20029;-86
2022/06/11 09:51:40;;;;;;;6.30;3.35;;;;;;;;;;5083017;28;20103;-86
2022/06/11 09:54:14;;;;;;;4.57;3.30;;;;;;;;;;5076373;28;20025;-85
2022/06/11 09:56:45;;;;;;;5.18;3.30;;;;;;;;;;5077572;28;20035;-86
2022/06/11 09:59:32;;;;;;;4.70;3.47;;;;;;;;;;5072335;28;20017;-87
2022/06/11 10:02:09;;;;;;;6.07;3.40;;;;;;;;;;5057611;28;20049;-85
2022/06/11 10:04:37;;;;;;;5.18;3.60;;;;;;;;;;5063401;28;20420;-86
2022/06/11 10:07:11;;;;;;;5.45;3.78;;;;;;;;;;5063323;28;20497;-86
2022/06/11 10:09:52;;;;;;;6.05;3.88;;;;;;;;;;5073873;28;20052;-87
2022/06/11 10:12:28;;;;;;;7.00;3.83;;;;;;;;;;5053964;28;20033;-87
2022/06/11 10:14:56;;;;;;;6.22;3.90;;;;;;;;;;5076341;28;20029;-87
2022/06/11 10:17:28;;;;;;;5.38;3.75;;;;;;;;;;5074849;28;20016;-86
2022/06/11 10:20:09;;;;;;;4.22;3.13;;;;;;;;;;5069668;28;20400;-85
2022/06/11 10:22:38;;;;;;;5.78;3.50;;;;;;;;;;5066175;28;20110;-89
2022/06/11 10:25:23;;;;;;;4.93;3.70;;;;;;;;;;5054845;28;20126;-85
2022/06/11 10:27:52;;;;;;;5.82;3.40;;;;;;;;;;5068763;28;20033;-88
2022/06/11 10:30:26;;;;;;;4.80;3.47;;;;;;;;;;5071361;28;20063;-87
2022/06/11 10:32:55;;;;;;;5.15;3.10;;;;;;;;;;5074475;28;20058;-84
2022/06/11 10:35:23;;;;;;;5.75;3.33;;;;;;;;;;5060009;28;20057;-84
2022/06/11 10:38:08;;;;;;;6.10;3.30;;;;;;;;;;5056192;28;20096;-85
2022/06/11 10:40:37;;;;;;;5.18;3.38;;;;;;;;;;5056558;28;20040;-84
2022/06/11 10:43:14;;;;;;;5.80;3.30;;;;;;;;;;5052048;28;20021;-85
2022/06/11 10:45:40;;;;;;;6.80;3.35;;;;;;;;;;5059452;28;20032;-83
2022/06/11 10:48:13;;;;;;;6.82;3.45;;;;;;;;;;5052180;28;20025;-85
2022/06/11 10:50:39;;;;;;;5.15;3.30;;;;;;;;;;5056080;28;20032;-83
2022/06/11 10:53:15;;;;;;;5.72;3.72;;;;;;;;;;5078909;28;20453;-83
2022/06/11 10:56:04;;;;;;;6.00;3.30;;;;;;;;;;5072386;28;20024;-84
2022/06/11 10:58:47;;;;;;;5.40;3.25;;;;;;;;;;5069147;28;20063;-82
2022/06/11 11:01:17;;;;;;;5.00;3.00;;;;;;;;;;5073701;28;20484;-83
2022/06/11 11:03:43;;;;;;;5.82;3.30;;;;;;;;;;5059898;28;20044;-83
2022/06/11 11:06:10;;;;;;;7.38;3.20;;;;;;;;;;5058939;28;20505;-83
2022/06/11 11:08:37;;;;;;;4.80;3.30;;;;;;;;;;5061185;28;20549;-83
2022/06/11 11:11:07;;;;;;;4.72;3.20;;;;;;;;;;5057849;28;20044;-82
2022/06/11 11:13:39;;;;;;;7.35;3.50;;;;;;;;;;5054918;28;20028;-83
2022/06/11 11:16:19;;;;;;;5.93;3.33;;;;;;;;;;5054641;28;20503;-83
2022/06/11 11:18:48;;;;;;;4.93;3.13;;;;;;;;;;5054185;28;20025;-83
2022/06/11 11:21:22;;;;;;;4.95;3.50;;;;;;;;;;5053271;28;20021;-86
2022/06/11 11:23:49;;;;;;;5.18;3.40;;;;;;;;;;5078559;28;20017;-85
2022/06/11 11:26:29;;;;;;;4.70;3.35;;;;;;;;;;5102624;28;20020;-84
2022/06/11 11:28:58;;;;;;;5.93;3.30;;;;;;;;;;5102094;28;20031;-84
2022/06/11 11:31:39;;;;;;;5.25;3.35;;;;;;;;;;5097484;28;20047;-84
2022/06/11 11:34:15;;;;;;;4.93;3.20;;;;;;;;;;5069540;28;20044;-84
2022/06/11 11:36:42;;;;;;;4.80;3.58;;;;;;;;;;5083397;28;20024;-83
2022/06/11 11:39:17;;;;;;;5.25;3.30;;;;;;;;;;5072595;28;20021;-82
2022/06/11 11:41:50;;;;;;;5.78;3.60;;;;;;;;;;5061549;28;20033;-83
2022/06/11 11:44:17;;;;;;;4.90;3.42;;;;;;;;;;5063321;28;20021;-84
2022/06/11 11:46:48;;;;;;;5.70;3.40;;;;;;;;;;5066487;28;20063;-84
2022/06/11 11:49:22;;;;;;;7.82;3.45;;;;;;;;;;5060681;28;20044;-83
2022/06/11 11:51:48;;;;;;;4.80;3.20;;;;;;;;;;5061114;28;20072;-84
2022/06/11 11:54:19;;;;;;;5.13;3.58;;;;;;;;;;5072664;28;20079;-83
2022/06/11 11:56:47;;;;;;;6.22;3.22;;;;;;;;;;5072771;28;20089;-83
2022/06/11 11:59:16;;;;;;;6.25;3.40;;;;;;;;;;5063612;28;20060;-83
2022/06/11 12:01:42;;;;;;;5.30;3.38;;;;;;;;;;5062815;28;20017;-84
2022/06/11 12:04:30;;;;;;;5.75;3.00;;;;;;;;;;5064219;28;20395;-84
2022/06/11 12:06:58;;;;;;;5.32;3.20;;;;;;;;;;5064994;28;20081;-84
2022/06/11 12:09:26;;;;;;;5.53;3.35;;;;;;;;;;5064933;28;20041;-83
2022/06/11 12:11:57;;;;;;;7.38;3.47;;;;;;;;;;5062390;28;20449;-82
2022/06/11 12:14:29;;;;;;;5.40;3.50;;;;;;;;;;5074527;28;20029;-81
2022/06/11 12:16:59;;;;;;;4.60;3.20;;;;;;;;;;5074067;28;20059;-83
2022/06/11 12:19:28;;;;;;;5.40;3.47;;;;;;;;;;5064196;28;20109;-82
2022/06/11 12:22:06;;;;;;;6.13;3.50;;;;;;;;;;5065146;28;20024;-84
2022/06/11 12:24:41;;;;;;;5.53;3.35;;;;;;;;;;5081884;28;20063;-83
2022/06/11 12:27:14;;;;;;;5.68;3.42;;;;;;;;;;5083308;28;20028;-83
2022/06/11 12:29:46;;;;;;;4.93;3.20;;;;;;;;;;5067799;28;20041;-81
2022/06/11 12:32:22;;;;;;;5.65;3.35;;;;;;;;;;5062675;28;20152;-83
2022/06/11 12:34:49;;;;;;;5.22;3.50;;;;;;;;;;5068640;28;20028;-82
2022/06/11 12:37:18;;;;;;;5.70;3.20;;;;;;;;;;5095238;28;20084;-81
2022/06/11 12:39:44;;;;;;;4.90;3.53;;;;;;;;;;5079964;28;20025;-83
2022/06/11 12:42:13;;;;;;;4.32;3.10;;;;;;;;;;5066985;28;20076;-82
2022/06/11 12:44:48;;;;;;;6.80;3.53;;;;;;;;;;5072000;28;20059;-82
2022/06/11 12:47:26;;;;;;;4.72;3.42;;;;;;;;;;5070836;28;20029;-82
2022/06/11 12:49:55;;;;;;;5.00;3.20;;;;;;;;;;5086411;28;20088;-83
2022/06/11 12:52:39;;;;;;;5.25;3.30;;;;;;;;;;5067645;28;20496;-83
2022/06/11 12:55:05;;;;;;;4.97;3.45;;;;;;;;;;5073467;28;20040;-83
2022/06/11 12:57:38;;;;;;;5.43;3.28;;;;;;;;;;5073297;28;20020;-84
2022/06/11 13:00:09;;;;;;;5.95;3.40;;;;;;;;;;5089455;28;20027;-83
2022/06/11 13:02:54;;;;;;;5.43;3.83;;;;;;;;;;5069776;28;20504;-81
2022/06/11 13:05:23;;;;;;;5.95;3.58;;;;;;;;;;5067992;28;20033;-83
2022/06/11 13:08:01;;;;;;;5.13;3.40;;;;;;;;;;5070032;28;20033;-82
2022/06/11 13:10:27;;;;;;;5.47;3.20;;;;;;;;;;5089661;28;20035;-83
2022/06/11 13:13:01;;;;;;;5.25;3.67;;;;;;;;;;5078708;28;20060;-83
2022/06/11 13:15:27;;;;;;;5.22;3.67;;;;;;;;;;5077656;28;20027;-82
2022/06/11 13:18:02;;;;;;;5.40;3.50;;;;;;;;;;5104157;28;20379;-83
2022/06/11 13:20:43;;;;;;;5.05;3.75;;;;;;;;;;5086450;28;20043;-83
2022/06/11 13:23:24;;;;;;;5.45;3.45;;;;;;;;;;5086583;28;20039;-83
2022/06/11 13:26:22;;;;;;;5.80;3.58;;;;;;;;;;5080406;28;20036;-83
2022/06/11 13:29:24;;;;;;;5.82;3.60;;;;;;;;;;5065032;28;20492;-84
2022/06/11 13:31:54;;;;;;;4.72;3.22;;;;;;;;;;5073110;28;20539;-83
2022/06/11 13:34:35;;;;;;;5.68;3.60;;;;;;;;;;5074782;28;20032;-83
2022/06/11 13:37:19;;;;;;;6.70;3.70;;;;;;;;;;5080599;28;20096;-83
2022/06/11 13:39:51;;;;;;;5.68;3.80;;;;;;;;;;5085238;28;20077;-84
2022/06/11 13:42:21;;;;;;;4.78;3.75;;;;;;;;;;5104936;28;20028;-82
2022/06/11 13:45:10;;;;;;;4.53;3.42;;;;;;;;;;5073206;28;20033;-83
2022/06/11 13:47:50;;;;;;;5.30;3.47;;;;;;;;;;5078454;28;20032;-83
2022/06/11 13:50:28;;;;;;;5.28;3.63;;;;;;;;;;5097796;28;20036;-83
2022/06/11 13:55:46;;;;;;;5.95;3.60;;;;;;;;;;5075459;28;20105;-82
2022/06/11 13:58:12;;;;;;;5.65;3.67;;;;;;;;;;5071355;28;20025;-82
2022/06/11 14:00:56;;;;;;;5.38;3.58;;;;;;;;;;5080972;28;20025;-83
2022/06/11 14:03:22;;;;;;;5.13;3.60;;;;;;;;;;5059854;28;20025;-84
2022/06/11 14:05:49;;;;;;;4.88;3.80;;;;;;;;;;5068348;28;20044;-83
2022/06/11 14:08:15;;;;;;;5.03;3.63;;;;;;;;;;5083310;28;20056;-83
2022/06/11 14:10:46;;;;;;;5.18;3.70;;;;;;;;;;5080227;28;20029;-83
2022/06/11 14:13:12;;;;;;;6.75;4.28;;;;;;;;;;5083054;28;20066;-83
2022/06/11 14:15:41;;;;;;;6.93;4.30;;;;;;;;;;5086294;28;20024;-80
2022/06/11 14:18:07;;;;;;;5.55;4.18;;;;;;;;;;5074699;28;20031;-84
2022/06/11 14:20:38;;;;;;;5.15;3.65;;;;;;;;;;5070886;28;20080;-84
2022/06/11 14:23:06;;;;;;;5.38;3.90;;;;;;;;;;5077218;28;20120;-84
2022/06/11 14:25:36;;;;;;;6.25;3.72;;;;;;;;;;5056064;28;20095;-84
2022/06/11 14:28:16;;;;;;;5.18;3.80;;;;;;;;;;5065847;28;20491;-83
2022/06/11 14:30:45;;;;;;;5.50;3.63;;;;;;;;;;5078939;28;20044;-82
2022/06/11 14:33:11;;;;;;;5.35;3.92;;;;;;;;;;5077032;28;20032;-83
2022/06/11 14:35:58;;;;;;;6.03;4.10;;;;;;;;;;5073987;28;20061;-84
2022/06/11 14:38:30;;;;;;;6.13;4.10;;;;;;;;;;5063819;28;20516;-86
2022/06/11 14:41:09;;;;;;;4.85;4.07;;;;;;;;;;5057813;28;20089;-84
2022/06/11 14:44:02;;;;;;;5.07;4.18;;;;;;;;;;5074057;28;20123;-84
2022/06/11 14:46:31;;;;;;;5.97;4.00;;;;;;;;;;5090097;28;20012;-83
2022/06/11 14:49:09;;;;;;;5.00;4.10;;;;;;;;;;5099728;28;20016;-84
2022/06/11 14:51:38;;;;;;;5.18;3.78;;;;;;;;;;5085370;28;20054;-83
2022/06/11 14:54:04;;;;;;;5.82;4.18;;;;;;;;;;5075421;28;20020;-84
2022/06/11 14:56:32;;;;;;;5.97;4.50;;;;;;;;;;5062013;28;20035;-84
2022/06/11 14:59:17;;;;;;;5.57;4.00;;;;;;;;;;5060023;28;20110;-84
2022/06/11 15:01:51;;;;;;;5.45;4.10;;;;;;;;;;5075956;28;20024;-84
2022/06/11 15:04:36;;;;;;;4.90;4.18;;;;;;;;;;5075907;28;20025;-83
2022/06/11 15:07:16;;;;;;;5.57;4.20;;;;;;;;;;5075575;28;20043;-84
2022/06/11 15:09:44;;;;;;;5.13;4.20;;;;;;;;;;5071382;28;20025;-84